EW9475 Weather Reports


time (UTC)temp
C
wind
direction
speed
KPH
gust
KPH
rain 1hr
cm
rain 24hr
cm
rain mn
cm
humidity
%
barometer
mb
20200229103816 13 0.0 0.0 0.00 0.00 0.00 88 1013.5
20200229102815 13 270 1.6 3.2 0.00 0.00 0.00 87 1013.3
20200229101816 13 225 3.2 4.8 0.00 0.00 0.00 87 1013.4
20200229100816 14 112 3.2 3.2 0.00 0.00 0.00 86 1013.1
20200229095815 14 0.0 0.0 0.00 0.00 0.00 86 1013.6
20200229094815 14 0.0 0.0 0.00 0.00 0.00 85 1013.6
20200229093815 14 0.0 0.0 0.00 0.00 0.00 85 1014.0
20200229092815 14 0.0 0.0 0.00 0.00 0.00 84 1013.8
20200229091816 14 0.0 0.0 0.00 0.00 0.00 83 1014.1
20200229090816 15 0.0 0.0 0.00 0.00 0.00 82 1014.3
20200229085816 15 292 1.6 3.2 0.00 0.00 0.00 80 1014.7
20200229084816 15 0.0 0.0 0.00 0.00 0.00 79 1014.8
20200229083815 16 157 3.2 4.8 0.00 0.00 0.00 76 1014.7
20200229082815 16 135 3.2 4.8 0.00 0.00 0.00 74 1014.7
20200229081815 17 135 3.2 6.4 0.00 0.00 0.00 69 1014.8
20200229080815 17 0 1.6 3.2 0.00 0.00 0.00 62 1015.0
20200229075815 17 0.0 1.6 0.00 0.00 0.00 67 1015.2
20200229074815 17 292 3.2 4.8 0.00 0.00 0.00 66 1015.4
20200229073815 17 315 3.2 4.8 0.00 0.00 0.00 70 1015.6
20200229072815 17 292 3.2 4.8 0.00 0.00 0.00 72 1015.8
20200229071815 17 315 4.8 8.0 0.00 0.00 0.00 76 1016.0
20200229070815 16 315 8.0 11.3 0.00 0.00 0.00 79 1016.2
20200229065815 16 270 3.2 4.8 0.00 0.00 0.00 82 1016.3
20200229064815 16 270 9.7 11.3 0.00 0.00 0.00 81 1016.1
20200229063816 15 292 6.4 11.3 0.00 0.00 0.00 77 1016.1
20200229062816 15 247 8.0 12.9 0.00 0.00 0.00 73 1016.1
20200229061815 15 247 3.2 3.2 0.00 0.00 0.00 74 1016.0
20200229060815 15 247 1.6 3.2 0.00 0.00 0.00 77 1016.0
20200229055815 15 247 3.2 4.8 0.00 0.00 0.00 78 1015.9
20200229054816 15 247 4.8 6.4 0.00 0.00 0.00 79 1016.0
20200229053815 15 225 4.8 6.4 0.00 0.00 0.00 78 1015.8
20200229052815 15 0.0 0.0 0.00 0.00 0.00 78 1015.7
20200229051815 15 0.0 0.0 0.00 0.00 0.00 77 1015.6
20200229050815 15 0.0 0.0 0.00 0.00 0.00 78 1015.5
20200229045816 15 0.0 0.0 0.00 0.00 0.00 79 1015.5
20200229044815 15 0.0 0.0 0.00 0.00 0.00 79 1015.3
20200229043815 15 0.0 0.0 0.00 0.00 0.00 75 1015.3
20200229042815 16 0.0 0.0 0.00 0.00 0.00 74 1015.2
20200229041815 16 0.0 1.6 0.00 0.00 0.00 72 1015.2
20200229040815 17 0 1.6 1.6 0.00 0.00 0.00 67 1015.1
20200229040007 17 0.0 1.6 0.00 0.00 0.00 67 1015.3
20200229034817 18 247 1.6 3.2 0.00 0.00 0.00 67 1015.3
20200229033817 18 0.0 0.0 0.00 0.00 0.00 61 1015.5
20200229032817 17 247 1.6 1.6 0.00 0.00 0.00 61 1015.7
20200229031817 18 0.0 0.0 0.00 0.00 0.00 67 1015.7
20200229030817 18 247 1.6 3.2 0.00 0.00 0.00 65 1015.5
20200229025817 18 247 3.2 3.2 0.00 0.00 0.00 64 1015.2
20200229024817 18 270 1.6 3.2 0.00 0.00 0.00 64 1015.1
20200229023817 18 270 1.6 3.2 0.00 0.00 0.00 65 1015.1
20200229022817 18 270 3.2 4.8 0.00 0.00 0.00 65 1014.9
20200229021817 18 247 4.8 6.4 0.00 0.00 0.00 66 1014.7
20200229020817 18 270 3.2 4.8 0.00 0.00 0.00 64 1014.7
20200229015817 19 270 3.2 6.4 0.00 0.00 0.00 62 1014.8
20200229014817 19 270 8.0 9.7 0.00 0.00 0.00 61 1014.9
20200229013817 20 247 4.8 6.4 0.00 0.00 0.00 59 1015.0
20200229012817 20 292 3.2 4.8 0.00 0.00 0.00 59 1015.0
20200229011817 20 292 4.8 9.7 0.00 0.00 0.00 58 1015.1
20200229010817 21 292 6.4 11.3 0.00 0.00 0.00 58 1015.1
20200229005817 22 270 9.7 16.1 0.00 0.00 0.00 55 1015.2
20200229004817 22 270 11.3 19.3 0.00 0.00 0.00 53 1015.2
20200229003817 23 270 9.7 14.5 0.00 0.00 0.00 48 1015.1
20200229002817 23 270 16.1 20.9 0.00 0.00 0.00 47 1015.2
20200229001817 24 270 12.9 19.3 0.00 0.00 0.00 51 1015.0
20200229000817 24 270 11.3 19.3 0.00 0.00 0.00 50 1015.0
20200228235817 25 270 12.9 17.7 0.00 0.00 0.00 52 1014.9
20200228234817 25 247 12.9 22.5 0.00 0.00 0.00 52 1014.9
20200228233817 25 247 12.9 16.1 0.00 0.00 0.00 50 1014.8
20200228232817 25 247 12.9 17.7 0.00 0.00 0.00 48 1014.8
20200228231817 26 270 9.7 25.7 0.00 0.00 0.00 50 1014.7
20200228230817 26 247 12.9 17.7 0.00 0.00 0.00 50 1014.7
20200228225817 26 225 11.3 19.3 0.00 0.00 0.00 52 1014.5
20200228224817 26 225 11.3 16.1 0.00 0.00 0.00 54 1014.5
20200228223817 27 247 12.9 16.1 0.00 0.00 0.00 53 1014.4
20200228222817 27 247 9.7 17.7 0.00 0.00 0.00 53 1014.3
20200228221817 27 270 11.3 17.7 0.00 0.00 0.00 54 1014.2
20200228220817 27 270 11.3 16.1 0.00 0.00 0.00 53 1014.2
20200228215816 28 270 14.5 19.3 0.00 0.00 0.00 52 1014.1
20200228214817 29 292 11.3 14.5 0.00 0.00 0.00 50 1014.0
20200228213817 28 202 9.7 12.9 0.00 0.00 0.00 43 1014.0
20200228212816 28 225 11.3 17.7 0.00 0.00 0.00 43 1014.1
20200228211817 28 225 9.7 14.5 0.00 0.00 0.00 44 1014.2
20200228210817 28 225 8.0 12.9 0.00 0.00 0.00 45 1014.3
20200228205816 28 225 6.4 11.3 0.00 0.00 0.00 44 1014.4
20200228204816 28 225 4.8 8.0 0.00 0.00 0.00 45 1014.9
20200228203816 28 202 8.0 12.9 0.00 0.00 0.00 47 1014.9
20200228202817 28 225 6.4 9.7 0.00 0.00 0.00 46 1015.2
20200228201816 27 180 8.0 11.3 0.00 0.00 0.00 47 1015.4
20200228200817 27 202 9.7 14.5 0.00 0.00 0.00 47 1015.4
20200228195816 27 247 3.2 3.2 0.00 0.00 0.00 47 1015.4
20200228194816 27 225 4.8 8.0 0.00 0.00 0.00 46 1015.6
20200228193816 27 157 1.6 3.2 0.00 0.00 0.00 49 1015.7
20200228192816 27 225 6.4 11.3 0.00 0.00 0.00 51 1015.7
20200228191816 26 180 6.4 11.3 0.00 0.00 0.00 52 1015.9
20200228190816 26 247 6.4 8.0 0.00 0.00 0.00 54 1016.2
20200228185816 25 225 6.4 8.0 0.00 0.00 0.00 56 1016.7
20200228184817 26 202 4.8 9.7 0.00 0.00 0.00 54 1016.9
20200228183816 25 225 8.0 14.5 0.00 0.00 0.00 51 1017.1
20200228182816 25 225 8.0 11.3 0.00 0.00 0.00 55 1017.0
20200228181816 24 225 8.0 9.7 0.00 0.00 0.00 57 1017.1
20200228180817 24 247 4.8 6.4 0.00 0.00 0.00 60 1017.2
20200228175816 23 225 4.8 8.0 0.00 0.00 0.00 63 1017.4
20200228174816 22 292 4.8 14.5 0.00 0.00 0.00 63 1017.4
20200228173816 22 225 3.2 4.8 0.00 0.00 0.00 64 1017.6
20200228172816 21 292 3.2 4.8 0.00 0.00 0.00 66 1017.6
20200228171816 21 270 4.8 8.0 0.00 0.00 0.00 66 1017.8
20200228170816 20 225 8.0 12.9 0.00 0.00 0.00 68 1017.8
20200228165816 19 225 4.8 8.0 0.00 0.00 0.00 72 1017.7
20200228164816 18 225 6.4 6.4 0.00 0.00 0.00 77 1017.6
20200228163816 18 247 4.8 4.8 0.00 0.00 0.00 75 1017.6
20200228162816 18 202 3.2 6.4 0.00 0.00 0.00 74 1017.3
20200228161816 18 202 3.2 4.8 0.00 0.00 0.00 76 1017.2
20200228160816 17 0.0 1.6 0.00 0.00 0.00 78 1017.1
20200228155816 16 157 1.6 3.2 0.00 0.00 0.00 80 1017.1
20200228154816 15 0.0 0.0 0.00 0.00 0.00 83 1016.9
20200228153816 15 0.0 0.0 0.00 0.00 0.00 84 1016.8
20200228152816 13 90 1.6 3.2 0.00 0.00 0.00 84 1016.8
20200228151816 13 0.0 1.6 0.00 0.00 0.00 87 1016.7
20200228150816 12 0.0 0.0 0.00 0.00 0.00 89 1016.7
20200228145816 12 0.0 1.6 0.00 0.00 0.00 91 1016.6
20200228144816 11 67 1.6 1.6 0.00 0.00 0.00 93 1016.5
20200228143816 10 67 1.6 3.2 0.00 0.00 0.00 92 1016.3
20200228142816 10 0.0 1.6 0.00 0.00 0.00 93 1016.1
20200228141816 10 90 3.2 3.2 0.00 0.00 0.00 93 1016.1
20200228140818 10 0.0 1.6 0.00 0.00 0.00 91 1016.0
20200228135816 11 0.0 0.0 0.00 0.00 0.00 95 1015.9
20200228134816 11 0.0 0.0 0.00 0.00 0.00 95 1015.9
20200228133816 11 0.0 0.0 0.00 0.00 0.00 95 1015.8
20200228132816 11 0.0 0.0 0.00 0.00 0.00 94 1015.8
20200228131816 10 0.0 0.0 0.00 0.00 0.00 94 1016.0
20200228130816 10 0.0 0.0 0.00 0.00 0.00 94 1015.9
20200228125816 10 0.0 0.0 0.00 0.00 0.00 94 1015.7
20200228124815 10 292 1.6 3.2 0.00 0.00 0.00 93 1015.6
20200228123815 10 0.0 0.0 0.00 0.00 0.00 92 1015.5
20200228122816 10 0.0 0.0 0.00 0.00 0.00 94 1015.5
20200228121816 9 292 1.6 1.6 0.00 0.00 0.00 95 1015.4
20200228120816 8 315 3.2 3.2 0.00 0.00 0.00 91 1015.4
20200228115815 8 0.0 0.0 0.00 0.00 0.00 92 1015.2
20200228114816 8 0.0 0.0 0.00 0.00 0.00 90 1015.2
20200228113816 9 0.0 0.0 0.00 0.00 0.00 92 1015.2
20200228112816 9 0.0 0.0 0.00 0.00 0.00 92 1015.2
20200228111815 9 0.0 0.0 0.00 0.00 0.00 91 1015.1
20200228110815 8 0.0 0.0 0.00 0.00 0.00 92 1015.0
20200228105815 8 0.0 0.0 0.00 0.00 0.00 92 1015.0
20200228104815 8 0.0 0.0 0.00 0.00 0.00 91 1015.0